Terminal Aerodrome Forecast
Issued by NWS

Home | Current Version | Previous Version | Text Only | Print | Product List | Glossary On
Versions: 1 2 3 4 5 6 7 8 9 10 11 12 13 14 15 16 17
460
FTUS43 KAPX 191737
TAFPLN
TAF
KPLN 191737Z 1918/2018 30012G21KT P6SM -SHSN SCT030 OVC045
      TEMPO 1918/1921 2SM -SHSN OVC025
     FM192100 29012G21KT P6SM -SHSN BKN045
     FM200000 29008KT P6SM BKN040
     FM201300 23006KT P6SM SCT040 BKN130=

USA.gov is the U.S. government's official web portal to all federal, state and local government web resources and services.